Donnes mto: Actuelle vendredi, 23/07/2021 17:30
Date Horaire Temp. E. Hum. E. P.atmo. Pluie Vent Direction Direction Ensoleilleme Solaire P. de rose Temp au vent Rafales
23/07/2021 17:30 29,8 C 50 % 1010,8 hPa 0,0 l/m 0,0 km/h (0 Bft) E-NE 68 60 min 410 W/m 18,2 C 29,8 C 0,0 km/h (0 Bft)
23/07/2021 16:30 30,1 C 46 % 1011,2 hPa 0,0 l/m 0,0 km/h (0 Bft) N-NE 12 60 min 640 W/m 17,2 C 30,1 C 0,0 km/h (0 Bft)
23/07/2021 15:30 29,0 C 51 % 1011,8 hPa 0,0 l/m 0,0 km/h (0 Bft) NE 46 60 min 427 W/m 17,8 C 29,0 C 1,6 km/h (1 Bft)
23/07/2021 14:30 28,4 C 58 % 1012,3 hPa 0,0 l/m 0,1 km/h (0 Bft) N-NE 15 60 min 868 W/m 19,3 C 28,4 C 3,2 km/h (1 Bft)
23/07/2021 13:30 27,1 C 61 % 1013,0 hPa 0,0 l/m 0,0 km/h (0 Bft) N-NE 33 60 min 860 W/m 18,9 C 27,1 C 1,6 km/h (1 Bft)
23/07/2021 12:30 25,9 C 62 % 1013,7 hPa 0,0 l/m 0,0 km/h (0 Bft) E-SE 103 60 min 807 W/m 18,0 C 25,9 C 0,0 km/h (0 Bft)
23/07/2021 11:30 24,3 C 63 % 1014,5 hPa 0,0 l/m 0,1 km/h (0 Bft) E-NE 63 60 min 715 W/m 16,8 C 24,3 C 1,6 km/h (1 Bft)
23/07/2021 10:30 22,6 C 66 % 1015,0 hPa 0,0 l/m 0,0 km/h (0 Bft) S-SO 207 60 min 598 W/m 15,9 C 22,6 C 0,0 km/h (0 Bft)
23/07/2021 09:30 19,3 C 77 % 1015,4 hPa 0,0 l/m 0,0 km/h (0 Bft) SO 225 10 min 429 W/m 15,2 C 19,3 C 0,0 km/h (0 Bft)
23/07/2021 08:30 15,6 C 93 % 1015,4 hPa 0,0 l/m 0,0 km/h (0 Bft) S 181 0 min 54 W/m 14,5 C 15,6 C 0,0 km/h (0 Bft)
23/07/2021 06:00 13,4 C 93 % 1015,7 hPa 0,0 l/m 0,0 km/h (0 Bft) N 0 0 min 0 W/m 12,3 C 13,4 C 0,0 km/h (0 Bft)
23/07/2021 03:00 15,4 C 91 % 1016,3 hPa 0,0 l/m 0,0 km/h (0 Bft) N 0 0 min 0 W/m 13,9 C 15,4 C 0,0 km/h (0 Bft)
23/07/2021 00:00 19,3 C 75 % 1016,8 hPa 0,0 l/m 0,0 km/h (0 Bft) N 0 0 min 0 W/m 14,8 C 19,3 C 0,0 km/h (0 Bft)
22/07/2021 22:40 21,2 C 70 % 1016,9 hPa 0,0 l/m 0,0 km/h (0 Bft) S 181 0 min 0 W/m 15,5 C 21,2 C 0,0 km/h (0 Bft)
22/07/2021 21:40 22,7 C 67 % 1016,7 hPa 0,0 l/m 1,0 km/h (0 Bft) S 182 0 min 0 W/m 16,2 C 22,7 C 3,2 km/h (1 Bft)
22/07/2021 20:40 25,8 C 63 % 1016,6 hPa 0,0 l/m 0,0 km/h (0 Bft) O-SO 246 10 min 35 W/m 18,2 C 25,8 C 0,0 km/h (0 Bft)
22/07/2021 19:40 26,7 C 51 % 1016,5 hPa 0,0 l/m 1,6 km/h (1 Bft) O-SO 244 60 min 181 W/m 15,7 C 26,7 C 6,4 km/h (2 Bft)
22/07/2021 18:40 27,3 C 48 % 1016,6 hPa 0,0 l/m 0,3 km/h (0 Bft) NO 307 40 min 334 W/m 15,3 C 27,3 C 4,8 km/h (1 Bft)
22/07/2021 18:00 27,2 C 46 % 1016,9 hPa 0,0 l/m 1,7 km/h (1 Bft) O-NO 298 0 min 438 W/m 14,6 C 27,2 C 6,4 km/h (2 Bft)
_ Min-Heure 06:45 18:10 17:20 - 19:50 - - - - 06:45 06:45 19:50
Minimum _ 13,3 C 44 % 1010,8 hPa - 0,0 km/h (0 Bft) - - - - 12,2 C 13,3 C 0,0 km/h (0 Bft)
_ Max-Heure 16:35 07:15 22:05 18:00 18:10 - - 18:00 13:45 13:55 16:35 18:10
Maximum _ 30,2 C 94 % 1017,0 hPa 0,0 l/m 4,5 km/h
O (1 Bft)
- - 5 min 893 W/m 19,6 C 30,2 C 11,3 km/h
O (2 Bft)
Moyenne _ 21,9 C 70 % 1015,3 hPa #0,0 l/m 0,4 km/h (0 Bft) S-SO - #8:10 h 504 W/m 15,6 C 21,9 C 2,1 km/h (1 Bft)